Time;durP1;ratioP1;P1;durP2;ratioP2;P2;SDS_P1;SDS_P2;PMS_P1;PMS_P2;Temp;Humidity;BMP_temperature;BMP_pressure;BME280_temperature;BME280_humidity;BME280_pressure;Samples;Min_cycle;Max_cycle;Signal;HPM_P1;HPM_P2
2022/07/29 00:00:14;;;;;;;9.10;2.00;;;;;;;;;;5053536;28;20027;-65
2022/07/29 00:02:39;;;;;;;8.85;1.60;;;;;;;;;;5053464;28;20021;-65
2022/07/29 00:05:05;;;;;;;8.38;2.22;;;;;;;;;;5053299;28;20029;-65
2022/07/29 00:07:31;;;;;;;5.15;1.63;;;;;;;;;;5052999;28;20029;-65
2022/07/29 00:09:56;;;;;;;6.35;1.75;;;;;;;;;;5052911;28;20062;-63
2022/07/29 00:12:24;;;;;;;4.68;1.88;;;;;;;;;;5053072;28;20108;-65
2022/07/29 00:14:51;;;;;;;9.00;1.83;;;;;;;;;;5053270;28;20021;-64
2022/07/29 00:17:16;;;;;;;5.80;2.08;;;;;;;;;;5053103;28;20103;-64
2022/07/29 00:19:42;;;;;;;7.20;1.90;;;;;;;;;;5052889;28;20170;-65
2022/07/29 00:22:08;;;;;;;5.60;2.08;;;;;;;;;;5052818;28;20028;-65
2022/07/29 00:24:33;;;;;;;6.07;1.95;;;;;;;;;;5053077;28;20025;-65
2022/07/29 00:26:59;;;;;;;5.47;1.95;;;;;;;;;;5052936;28;20367;-64
2022/07/29 00:29:24;;;;;;;7.63;1.90;;;;;;;;;;5052813;28;20060;-65
2022/07/29 00:31:50;;;;;;;6.65;1.80;;;;;;;;;;5052812;28;20516;-65
2022/07/29 00:36:59;;;;;;;7.72;1.85;;;;;;;;;;5051783;28;20027;-64
2022/07/29 00:39:25;;;;;;;5.40;2.28;;;;;;;;;;5052613;28;20020;-65
2022/07/29 00:41:51;;;;;;;7.90;2.00;;;;;;;;;;5052607;28;20104;-65
2022/07/29 00:44:16;;;;;;;4.75;1.90;;;;;;;;;;5052671;28;20028;-65
2022/07/29 00:46:42;;;;;;;6.00;1.92;;;;;;;;;;5052568;28;20098;-68
2022/07/29 00:49:08;;;;;;;4.63;2.20;;;;;;;;;;5052628;28;20025;-65
2022/07/29 00:51:37;;;;;;;4.00;1.90;;;;;;;;;;5052285;28;20108;-66
2022/07/29 00:54:04;;;;;;;3.10;1.83;;;;;;;;;;5052829;28;20064;-66
2022/07/29 00:56:31;;;;;;;6.65;2.08;;;;;;;;;;5052794;28;20029;-66
2022/07/29 00:58:57;;;;;;;9.43;2.10;;;;;;;;;;5052965;28;20025;-66
2022/07/29 01:01:26;;;;;;;5.47;1.90;;;;;;;;;;5053012;28;20178;-67
2022/07/29 01:03:52;;;;;;;6.00;2.05;;;;;;;;;;5050785;28;20024;-65
2022/07/29 01:06:19;;;;;;;5.45;1.77;;;;;;;;;;5052759;28;20021;-67
2022/07/29 01:08:48;;;;;;;5.95;2.05;;;;;;;;;;5052706;28;20043;-64
2022/07/29 01:11:15;;;;;;;5.00;2.10;;;;;;;;;;5052351;28;20048;-66
2022/07/29 01:13:43;;;;;;;9.55;2.45;;;;;;;;;;5052719;28;20060;-65
2022/07/29 01:16:15;;;;;;;7.28;2.00;;;;;;;;;;5052672;28;20481;-66
2022/07/29 01:18:46;;;;;;;5.78;1.95;;;;;;;;;;5052524;28;20084;-66
2022/07/29 01:21:14;;;;;;;5.47;1.92;;;;;;;;;;5052433;28;20024;-66
2022/07/29 01:23:52;;;;;;;5.55;2.45;;;;;;;;;;5052542;28;20025;-66
2022/07/29 01:26:37;;;;;;;5.70;2.05;;;;;;;;;;5052726;28;20056;-66
2022/07/29 01:29:41;;;;;;;10.07;2.33;;;;;;;;;;5052492;28;20167;-64
2022/07/29 01:32:18;;;;;;;4.00;2.08;;;;;;;;;;5052399;28;20057;-66
2022/07/29 01:34:55;;;;;;;7.90;2.28;;;;;;;;;;5051092;28;20066;-65
2022/07/29 01:37:29;;;;;;;7.15;2.08;;;;;;;;;;5052475;28;20032;-66
2022/07/29 01:39:57;;;;;;;3.67;1.85;;;;;;;;;;5052549;28;20021;-66
2022/07/29 01:42:31;;;;;;;7.95;2.10;;;;;;;;;;5052482;28;20021;-64
2022/07/29 01:45:12;;;;;;;5.72;2.00;;;;;;;;;;5052560;28;20348;-66
2022/07/29 01:47:46;;;;;;;;;;;;;;;;;;5052544;28;20021;-64
2022/07/29 01:50:15;;;;;;;5.93;2.00;;;;;;;;;;5052489;28;20381;-65
2022/07/29 01:52:54;;;;;;;7.63;2.13;;;;;;;;;;5052424;28;20056;-66
2022/07/29 01:55:24;;;;;;;6.57;2.28;;;;;;;;;;5050920;28;20071;-65
2022/07/29 01:57:49;;;;;;;6.65;2.03;;;;;;;;;;5052305;28;20029;-66
2022/07/29 02:00:16;;;;;;;6.38;2.28;;;;;;;;;;5052312;28;20108;-66
2022/07/29 02:02:45;;;;;;;4.68;1.92;;;;;;;;;;5051924;28;20040;-65
2022/07/29 02:05:13;;;;;;;4.70;2.45;;;;;;;;;;5052155;28;20486;-66
2022/07/29 02:07:41;;;;;;;5.38;1.98;;;;;;;;;;5052151;28;20029;-65
2022/07/29 02:10:08;;;;;;;6.78;2.00;;;;;;;;;;5051817;28;20075;-64
2022/07/29 02:12:36;;;;;;;5.28;2.40;;;;;;;;;;5051951;28;20127;-65
2022/07/29 02:15:04;;;;;;;6.50;2.47;;;;;;;;;;5052125;28;20025;-66
2022/07/29 02:17:35;;;;;;;6.20;2.25;;;;;;;;;;5055585;28;20024;-66
2022/07/29 02:20:03;;;;;;;4.90;2.30;;;;;;;;;;5055873;28;20060;-67
2022/07/29 02:22:31;;;;;;;8.45;2.70;;;;;;;;;;5054639;28;20127;-66
2022/07/29 02:24:58;;;;;;;6.00;2.08;;;;;;;;;;5055920;28;20086;-66
2022/07/29 02:27:28;;;;;;;6.35;2.80;;;;;;;;;;5055790;28;20413;-66
2022/07/29 02:29:57;;;;;;;5.78;2.20;;;;;;;;;;5055785;28;20029;-65
2022/07/29 02:32:25;;;;;;;6.60;2.30;;;;;;;;;;5055460;28;20033;-65
2022/07/29 02:34:52;;;;;;;5.72;2.40;;;;;;;;;;5055654;28;20024;-65
2022/07/29 02:37:18;;;;;;;7.30;2.15;;;;;;;;;;5055511;28;20021;-65
2022/07/29 02:39:45;;;;;;;6.15;2.38;;;;;;;;;;5054284;28;20028;-65
2022/07/29 02:42:15;;;;;;;3.88;2.17;;;;;;;;;;5055699;28;20054;-66
2022/07/29 02:44:41;;;;;;;9.18;2.42;;;;;;;;;;5055469;28;20463;-64
2022/07/29 02:47:34;;;;;;;7.95;2.22;;;;;;;;;;5055010;28;20052;-67
2022/07/29 02:50:15;;;;;;;10.43;2.20;;;;;;;;;;5055396;28;20017;-64
2022/07/29 02:52:57;;;;;;;7.78;2.50;;;;;;;;;;5055378;28;20029;-66
2022/07/29 02:55:33;;;;;;;8.25;2.42;;;;;;;;;;5055232;28;20033;-66
2022/07/29 02:58:07;;;;;;;7.97;2.70;;;;;;;;;;5055326;28;20488;-66
2022/07/29 03:00:36;;;;;;;6.43;2.90;;;;;;;;;;5055092;28;20025;-65
2022/07/29 03:03:07;;;;;;;11.43;3.50;;;;;;;;;;5055245;28;20486;-64
2022/07/29 03:05:32;;;;;;;;;;;;;;;;;;5055504;28;20032;-65
2022/07/29 03:08:04;;;;;;;6.90;2.60;;;;;;;;;;5055086;28;19913;-65
2022/07/29 03:10:30;;;;;;;9.10;2.85;;;;;;;;;;5054624;28;20049;-65
2022/07/29 03:12:57;;;;;;;6.65;2.47;;;;;;;;;;5054936;28;20029;-67
2022/07/29 03:15:23;;;;;;;7.70;2.90;;;;;;;;;;5054655;28;20036;-64
2022/07/29 03:17:50;;;;;;;5.53;2.47;;;;;;;;;;5054830;28;20025;-65
2022/07/29 03:20:16;;;;;;;5.88;3.05;;;;;;;;;;5054715;28;20025;-64
2022/07/29 03:22:43;;;;;;;6.35;2.75;;;;;;;;;;5054705;28;20075;-66
2022/07/29 03:25:13;;;;;;;5.88;2.63;;;;;;;;;;5054578;28;20031;-65
2022/07/29 03:27:38;;;;;;;7.13;2.65;;;;;;;;;;5054193;28;20028;-63
2022/07/29 03:30:05;;;;;;;7.07;2.40;;;;;;;;;;5054431;28;20086;-65
2022/07/29 03:32:31;;;;;;;8.13;2.80;;;;;;;;;;5054561;28;20032;-65
2022/07/29 03:34:57;;;;;;;4.57;2.58;;;;;;;;;;5054560;28;20033;-66
2022/07/29 03:37:22;;;;;;;7.85;2.40;;;;;;;;;;5054502;28;20033;-66
2022/07/29 03:39:50;;;;;;;11.50;3.85;;;;;;;;;;5054389;28;20060;-66
2022/07/29 03:42:17;;;;;;;6.40;2.60;;;;;;;;;;5054386;28;20553;-66
2022/07/29 03:44:47;;;;;;;8.30;2.67;;;;;;;;;;5052644;28;20429;-66
2022/07/29 03:47:15;;;;;;;5.13;2.20;;;;;;;;;;5053057;28;20052;-66
2022/07/29 03:49:48;;;;;;;6.38;2.60;;;;;;;;;;5054175;28;20110;-66
2022/07/29 03:52:13;;;;;;;8.15;2.50;;;;;;;;;;5054376;28;20025;-67
2022/07/29 03:54:39;;;;;;;5.53;2.58;;;;;;;;;;5054273;28;20040;-66
2022/07/29 03:57:06;;;;;;;6.20;2.40;;;;;;;;;;5052746;28;20037;-67
2022/07/29 03:59:36;;;;;;;7.40;2.55;;;;;;;;;;5053939;28;20025;-66
2022/07/29 04:02:03;;;;;;;4.60;2.10;;;;;;;;;;5054133;28;20029;-65
2022/07/29 04:04:28;;;;;;;5.43;2.25;;;;;;;;;;5054197;28;20017;-66
2022/07/29 04:06:54;;;;;;;10.48;2.70;;;;;;;;;;5053847;28;20021;-66
2022/07/29 04:09:19;;;;;;;7.03;2.30;;;;;;;;;;5053741;28;20466;-66
2022/07/29 04:11:45;;;;;;;4.80;2.40;;;;;;;;;;5053609;28;20135;-65
2022/07/29 04:14:11;;;;;;;6.68;2.15;;;;;;;;;;5053462;28;20025;-65
2022/07/29 04:16:36;;;;;;;7.20;2.13;;;;;;;;;;5053747;28;20024;-66
2022/07/29 04:19:02;;;;;;;5.03;2.40;;;;;;;;;;5052442;28;20446;-66
2022/07/29 04:21:28;;;;;;;6.88;2.40;;;;;;;;;;5053671;28;20528;-66
2022/07/29 04:23:53;;;;;;;4.32;2.08;;;;;;;;;;5053622;28;20029;-66
2022/07/29 04:26:20;;;;;;;6.32;2.58;;;;;;;;;;5053233;28;20033;-66
2022/07/29 04:28:46;;;;;;;8.80;2.90;;;;;;;;;;5053342;28;20052;-66
2022/07/29 04:31:12;;;;;;;8.20;3.13;;;;;;;;;;5053463;28;20021;-65
2022/07/29 04:33:38;;;;;;;4.97;2.38;;;;;;;;;;5053464;28;20163;-65
2022/07/29 04:36:05;;;;;;;7.35;2.30;;;;;;;;;;5053281;28;20072;-66
2022/07/29 04:38:31;;;;;;;4.88;1.98;;;;;;;;;;5052336;28;20074;-66
2022/07/29 04:40:56;;;;;;;4.38;2.40;;;;;;;;;;5053387;28;20369;-65
2022/07/29 04:43:22;;;;;;;7.20;2.40;;;;;;;;;;5052785;28;20033;-66
2022/07/29 04:45:47;;;;;;;6.45;2.55;;;;;;;;;;5053183;28;20048;-66
2022/07/29 04:48:13;;;;;;;6.63;2.40;;;;;;;;;;5053249;28;20355;-65
2022/07/29 04:50:39;;;;;;;5.43;2.33;;;;;;;;;;5053152;28;20425;-65
2022/07/29 04:53:05;;;;;;;8.98;2.40;;;;;;;;;;5052821;28;20024;-66
2022/07/29 04:55:31;;;;;;;4.90;2.50;;;;;;;;;;5053118;28;20036;-66
2022/07/29 04:57:57;;;;;;;7.28;2.90;;;;;;;;;;5052913;28;20032;-65
2022/07/29 05:00:23;;;;;;;6.60;2.40;;;;;;;;;;5053110;28;20021;-64
2022/07/29 05:02:49;;;;;;;11.05;3.25;;;;;;;;;;5052981;28;20036;-65
2022/07/29 05:05:14;;;;;;;7.55;2.63;;;;;;;;;;5052949;28;20017;-65
2022/07/29 05:07:41;;;;;;;6.78;2.58;;;;;;;;;;5052779;28;20032;-63
2022/07/29 05:10:07;;;;;;;6.30;2.30;;;;;;;;;;5052452;28;20501;-64
2022/07/29 05:12:32;;;;;;;5.00;2.40;;;;;;;;;;5052510;28;20037;-64
2022/07/29 05:14:59;;;;;;;9.55;2.63;;;;;;;;;;5052866;28;20025;-64
2022/07/29 05:17:24;;;;;;;9.90;2.50;;;;;;;;;;5052706;28;20087;-65
2022/07/29 05:19:51;;;;;;;5.22;2.97;;;;;;;;;;5052615;28;20028;-64
2022/07/29 05:22:20;;;;;;;6.75;2.55;;;;;;;;;;5051635;28;20017;-64
2022/07/29 05:24:46;;;;;;;9.40;2.42;;;;;;;;;;5052492;28;20048;-64
2022/07/29 05:27:13;;;;;;;6.80;2.70;;;;;;;;;;5052464;28;20039;-66
2022/07/29 05:29:38;;;;;;;7.10;2.70;;;;;;;;;;5052567;28;20056;-64
2022/07/29 05:32:04;;;;;;;5.00;2.70;;;;;;;;;;5052474;28;20486;-64
2022/07/29 05:34:30;;;;;;;7.25;2.40;;;;;;;;;;5052409;28;20025;-63
2022/07/29 05:36:56;;;;;;;7.25;2.70;;;;;;;;;;5052558;28;20417;-63
2022/07/29 05:39:23;;;;;;;6.70;2.70;;;;;;;;;;5052236;28;20025;-66
2022/07/29 05:41:48;;;;;;;10.95;2.50;;;;;;;;;;5052432;28;20108;-64
2022/07/29 05:44:14;;;;;;;7.05;2.88;;;;;;;;;;5052561;28;20108;-64
2022/07/29 05:46:40;;;;;;;12.07;2.67;;;;;;;;;;5052467;28;20033;-64
2022/07/29 05:49:06;;;;;;;9.18;2.60;;;;;;;;;;5052330;28;20588;-64
2022/07/29 05:51:33;;;;;;;2.92;1.77;;;;;;;;;;5056285;28;20040;-66
2022/07/29 05:53:59;;;;;;;4.07;1.92;;;;;;;;;;5056197;28;20021;-65
2022/07/29 05:56:25;;;;;;;6.53;2.10;;;;;;;;;;5056137;28;20017;-65
2022/07/29 05:58:50;;;;;;;7.57;2.28;;;;;;;;;;5056424;28;20025;-63
2022/07/29 06:01:16;;;;;;;3.65;1.92;;;;;;;;;;5056231;28;20075;-63
2022/07/29 06:03:42;;;;;;;7.72;2.20;;;;;;;;;;5056287;28;20449;-64
2022/07/29 06:06:08;;;;;;;5.13;2.22;;;;;;;;;;5056187;28;20024;-63
2022/07/29 06:08:34;;;;;;;5.97;1.90;;;;;;;;;;5055966;28;20029;-63
2022/07/29 06:11:01;;;;;;;7.25;2.20;;;;;;;;;;5055804;28;20041;-65
2022/07/29 06:13:26;;;;;;;5.57;2.20;;;;;;;;;;5056110;28;20017;-63
2022/07/29 06:15:52;;;;;;;9.00;2.22;;;;;;;;;;5055717;28;20437;-63
2022/07/29 06:18:18;;;;;;;5.55;2.08;;;;;;;;;;5056002;28;20436;-63
2022/07/29 06:20:43;;;;;;;6.35;2.20;;;;;;;;;;5055829;28;20033;-64
2022/07/29 06:23:09;;;;;;;2.92;1.50;;;;;;;;;;5055826;28;20132;-64
2022/07/29 06:25:36;;;;;;;6.57;2.22;;;;;;;;;;5056043;28;20112;-64
2022/07/29 06:28:02;;;;;;;5.68;2.05;;;;;;;;;;5055702;28;20029;-64
2022/07/29 06:30:28;;;;;;;8.23;2.20;;;;;;;;;;5055592;28;20033;-65
2022/07/29 06:32:54;;;;;;;5.97;2.30;;;;;;;;;;5055764;28;20086;-63
2022/07/29 06:35:21;;;;;;;7.97;2.50;;;;;;;;;;5055789;28;20032;-63
2022/07/29 06:37:47;;;;;;;8.32;2.47;;;;;;;;;;5055455;28;20025;-64
2022/07/29 06:42:56;;;;;;;8.80;2.47;;;;;;;;;;5055898;28;20108;-64
2022/07/29 06:45:22;;;;;;;6.22;2.28;;;;;;;;;;5055475;28;20029;-64
2022/07/29 06:47:48;;;;;;;8.60;2.70;;;;;;;;;;5055262;28;20079;-64
2022/07/29 06:50:14;;;;;;;8.30;2.75;;;;;;;;;;5055502;28;20117;-63
2022/07/29 06:52:40;;;;;;;8.55;2.10;;;;;;;;;;5054847;28;20037;-64
2022/07/29 06:55:07;;;;;;;4.65;2.03;;;;;;;;;;5055151;28;20086;-64
2022/07/29 06:57:32;;;;;;;8.00;2.78;;;;;;;;;;5058663;28;20424;-64
2022/07/29 06:59:58;;;;;;;4.30;2.33;;;;;;;;;;5054761;28;20043;-65
2022/07/29 07:02:24;;;;;;;8.13;2.75;;;;;;;;;;5053915;28;20033;-64
2022/07/29 07:04:49;;;;;;;6.65;2.00;;;;;;;;;;5054681;28;20029;-64
2022/07/29 07:07:15;;;;;;;4.63;2.20;;;;;;;;;;5054516;28;20021;-64
2022/07/29 07:09:41;;;;;;;6.25;2.40;;;;;;;;;;5054403;28;20505;-64
2022/07/29 07:12:07;;;;;;;4.18;2.30;;;;;;;;;;5054231;28;20063;-65
2022/07/29 07:14:32;;;;;;;5.22;2.20;;;;;;;;;;5054572;28;20452;-65
2022/07/29 07:17:00;;;;;;;4.93;2.13;;;;;;;;;;5054576;28;20103;-64
2022/07/29 07:19:26;;;;;;;6.43;2.60;;;;;;;;;;5054341;28;20502;-63
2022/07/29 07:21:53;;;;;;;3.75;2.08;;;;;;;;;;5053858;28;20547;-65
2022/07/29 07:24:18;;;;;;;6.25;2.15;;;;;;;;;;5054332;28;20057;-64
2022/07/29 07:26:44;;;;;;;10.93;2.85;;;;;;;;;;5054311;28;20060;-64
2022/07/29 07:29:10;;;;;;;5.32;2.00;;;;;;;;;;5054442;28;20025;-65
2022/07/29 07:31:36;;;;;;;9.13;2.00;;;;;;;;;;5054148;28;20025;-64
2022/07/29 07:34:02;;;;;;;8.15;2.55;;;;;;;;;;5054242;28;20025;-63
2022/07/29 07:36:27;;;;;;;20.90;3.60;;;;;;;;;;5054122;28;20385;-64
2022/07/29 07:38:53;;;;;;;6.47;2.03;;;;;;;;;;5054325;28;20032;-65
2022/07/29 07:41:19;;;;;;;10.07;2.78;;;;;;;;;;5054153;28;20450;-65
2022/07/29 07:43:44;;;;;;;13.63;2.70;;;;;;;;;;5053845;28;20536;-65
2022/07/29 07:46:10;;;;;;;15.35;2.65;;;;;;;;;;5053934;28;20024;-65
2022/07/29 07:48:35;;;;;;;10.55;2.72;;;;;;;;;;5053983;28;20024;-64
2022/07/29 07:51:01;;;;;;;7.72;1.90;;;;;;;;;;5053832;28;20051;-64
2022/07/29 07:53:27;;;;;;;8.27;1.80;;;;;;;;;;5053990;28;20439;-65
2022/07/29 07:55:53;;;;;;;7.93;2.00;;;;;;;;;;5053606;28;20037;-65
2022/07/29 07:58:18;;;;;;;4.75;2.00;;;;;;;;;;5053882;28;20032;-65
2022/07/29 08:00:44;;;;;;;9.52;2.00;;;;;;;;;;5053795;28;20025;-64
2022/07/29 08:03:12;;;;;;;5.97;2.00;;;;;;;;;;5053833;28;20035;-65
2022/07/29 08:05:38;;;;;;;9.95;2.10;;;;;;;;;;5053294;28;20017;-65
2022/07/29 08:08:04;;;;;;;5.45;1.73;;;;;;;;;;5053492;28;20543;-65
2022/07/29 08:11:14;;;;;;;3.85;1.58;;;;;;;;;;5052298;28;20056;-64
2022/07/29 08:13:15;;;;;;;6.68;1.70;;;;;;;;;;5048642;28;20037;-64
2022/07/29 08:15:42;;;;;;;9.88;1.80;;;;;;;;;;5052866;28;20024;-64
2022/07/29 08:18:08;;;;;;;5.10;1.63;;;;;;;;;;5053544;28;20036;-64
2022/07/29 08:20:35;;;;;;;19.80;3.53;;;;;;;;;;5053055;28;20041;-64
2022/07/29 08:23:02;;;;;;;12.02;2.40;;;;;;;;;;5053208;28;20025;-65
2022/07/29 08:25:28;;;;;;;9.80;2.08;;;;;;;;;;5053233;28;20028;-65
2022/07/29 08:27:53;;;;;;;13.80;2.22;;;;;;;;;;5053018;28;20498;-65
2022/07/29 08:30:19;;;;;;;4.82;1.60;;;;;;;;;;5052483;28;20048;-64
2022/07/29 08:32:45;;;;;;;4.45;1.60;;;;;;;;;;5053091;28;20068;-65
2022/07/29 08:35:10;;;;;;;6.15;2.10;;;;;;;;;;5052883;28;20032;-65
2022/07/29 08:37:36;;;;;;;4.55;1.58;;;;;;;;;;5053138;28;20036;-65
2022/07/29 08:40:02;;;;;;;9.05;1.70;;;;;;;;;;5053063;28;20474;-65
2022/07/29 08:42:27;;;;;;;5.88;1.90;;;;;;;;;;5053022;28;20025;-65
2022/07/29 08:44:54;;;;;;;3.80;1.65;;;;;;;;;;5052933;28;20036;-65
2022/07/29 08:47:20;;;;;;;5.82;1.70;;;;;;;;;;5053011;28;20378;-65
2022/07/29 08:49:46;;;;;;;9.88;1.80;;;;;;;;;;5052342;28;20017;-65
2022/07/29 08:52:14;;;;;;;3.38;1.60;;;;;;;;;;5052829;28;20025;-64
2022/07/29 08:54:43;;;;;;;7.70;1.90;;;;;;;;;;5052683;28;20029;-64
2022/07/29 08:57:13;;;;;;;7.00;1.70;;;;;;;;;;5052719;28;20033;-64
2022/07/29 08:59:42;;;;;;;6.10;2.00;;;;;;;;;;5052775;28;20021;-64
2022/07/29 09:02:21;;;;;;;29.88;3.58;;;;;;;;;;5052469;28;20021;-64
2022/07/29 09:04:47;;;;;;;13.05;2.78;;;;;;;;;;5052690;28;20025;-64
2022/07/29 09:07:17;;;;;;;33.17;3.80;;;;;;;;;;5052597;28;20036;-65
2022/07/29 09:09:43;;;;;;;8.48;1.92;;;;;;;;;;5052198;28;20398;-65
2022/07/29 09:12:11;;;;;;;20.83;3.20;;;;;;;;;;5052426;28;20464;-65
2022/07/29 09:14:40;;;;;;;6.07;1.95;;;;;;;;;;5052421;28;20072;-65
2022/07/29 09:17:07;;;;;;;5.65;1.70;;;;;;;;;;5052303;28;20108;-64
2022/07/29 09:19:36;;;;;;;5.30;1.70;;;;;;;;;;5052401;28;20025;-64
2022/07/29 09:22:04;;;;;;;;;;;;;;;;;;5052649;28;20025;-64
2022/07/29 09:24:44;;;;;;;5.65;1.70;;;;;;;;;;5051981;28;19913;-65
2022/07/29 09:27:21;;;;;;;5.25;1.80;;;;;;;;;;5052322;28;20025;-65
2022/07/29 09:30:05;;;;;;;6.05;2.08;;;;;;;;;;5052101;28;20094;-65
2022/07/29 09:32:31;;;;;;;3.65;1.77;;;;;;;;;;5051989;28;20112;-64
2022/07/29 09:35:16;;;;;;;5.47;2.00;;;;;;;;;;5052068;28;20021;-65
2022/07/29 09:37:42;;;;;;;6.45;1.60;;;;;;;;;;5052186;28;20108;-65
2022/07/29 09:40:16;;;;;;;6.50;1.70;;;;;;;;;;5052118;28;20025;-65
2022/07/29 09:42:42;;;;;;;6.40;1.88;;;;;;;;;;5051705;28;20053;-65
2022/07/29 09:45:08;;;;;;;7.18;2.20;;;;;;;;;;5051914;28;20068;-64
2022/07/29 09:48:13;;;;;;;6.80;2.05;;;;;;;;;;5051840;28;20028;-65
2022/07/29 09:50:40;;;;;;;3.80;1.42;;;;;;;;;;5052161;28;20032;-66
2022/07/29 09:53:05;;;;;;;10.95;2.20;;;;;;;;;;5052259;28;20071;-64
2022/07/29 09:55:31;;;;;;;6.88;2.00;;;;;;;;;;5052067;28;20029;-65
2022/07/29 09:58:17;;;;;;;5.47;1.70;;;;;;;;;;5051989;28;20028;-66
2022/07/29 10:00:45;;;;;;;4.15;1.42;;;;;;;;;;5051825;28;20028;-65
2022/07/29 10:03:11;;;;;;;13.05;2.10;;;;;;;;;;5052048;28;20041;-65
2022/07/29 10:05:37;;;;;;;7.05;1.80;;;;;;;;;;5051907;28;20024;-66
2022/07/29 10:08:03;;;;;;;8.02;1.58;;;;;;;;;;5051816;28;21205;-65
2022/07/29 10:10:34;;;;;;;5.97;1.58;;;;;;;;;;5051326;28;20049;-66
2022/07/29 10:13:05;;;;;;;7.53;1.60;;;;;;;;;;5051867;28;20029;-64
2022/07/29 10:15:36;;;;;;;4.03;1.58;;;;;;;;;;5051698;28;20029;-66
2022/07/29 10:18:03;;;;;;;4.13;1.70;;;;;;;;;;5051859;28;20025;-66
2022/07/29 10:20:28;;;;;;;6.07;1.90;;;;;;;;;;5051804;28;20070;-66
2022/07/29 10:22:55;;;;;;;5.07;1.60;;;;;;;;;;5051832;28;20503;-65
2022/07/29 10:25:21;;;;;;;6.35;1.30;;;;;;;;;;5051773;28;20035;-65
2022/07/29 10:27:48;;;;;;;7.80;1.90;;;;;;;;;;5051114;28;20020;-65
2022/07/29 10:30:16;;;;;;;5.43;1.25;;;;;;;;;;5051505;28;20025;-65
2022/07/29 10:33:09;;;;;;;3.55;1.65;;;;;;;;;;5051050;28;20021;-65
2022/07/29 10:36:11;;;;;;;4.07;1.50;;;;;;;;;;5051555;28;20025;-65
2022/07/29 10:38:48;;;;;;;4.15;1.48;;;;;;;;;;5055502;28;20032;-66
2022/07/29 10:41:38;;;;;;;5.13;1.50;;;;;;;;;;5055241;28;20028;-65
2022/07/29 10:44:07;;;;;;;6.05;1.77;;;;;;;;;;5055077;28;20095;-65
2022/07/29 10:46:38;;;;;;;3.92;1.42;;;;;;;;;;5055197;28;20082;-65
2022/07/29 10:49:16;;;;;;;2.47;1.35;;;;;;;;;;5055200;28;20119;-64
2022/07/29 10:51:58;;;;;;;4.40;1.60;;;;;;;;;;5055012;28;20110;-63
2022/07/29 10:54:36;;;;;;;7.18;1.90;;;;;;;;;;5055001;28;20029;-65
2022/07/29 10:57:20;;;;;;;3.15;1.45;;;;;;;;;;5053351;28;20028;-65
2022/07/29 11:00:09;;;;;;;4.15;1.70;;;;;;;;;;5054705;28;20158;-65
2022/07/29 11:02:42;;;;;;;3.47;1.25;;;;;;;;;;5054561;28;20048;-66
2022/07/29 11:05:08;;;;;;;3.60;1.30;;;;;;;;;;5055005;28;20044;-64
2022/07/29 11:07:35;;;;;;;3.47;1.90;;;;;;;;;;5055070;28;20025;-64
2022/07/29 11:10:12;;;;;;;7.63;1.70;;;;;;;;;;5054632;28;20065;-64
2022/07/29 11:12:38;;;;;;;6.40;1.90;;;;;;;;;;5054495;28;20093;-65
2022/07/29 11:15:06;;;;;;;4.32;1.75;;;;;;;;;;5054704;28;20111;-66
2022/07/29 11:17:53;;;;;;;4.43;1.38;;;;;;;;;;5054424;28;20501;-66
2022/07/29 11:20:45;;;;;;;4.05;1.52;;;;;;;;;;5054656;28;20405;-65
2022/07/29 11:23:36;;;;;;;4.47;1.48;;;;;;;;;;5054666;28;20095;-64
2022/07/29 11:26:20;;;;;;;4.15;1.42;;;;;;;;;;5054883;28;20035;-65
2022/07/29 11:29:01;;;;;;;7.32;1.80;;;;;;;;;;5057103;28;20023;-65
2022/07/29 11:31:41;;;;;;;5.90;1.63;;;;;;;;;;5056058;28;20031;-65
2022/07/29 11:34:25;;;;;;;4.43;1.50;;;;;;;;;;5054347;28;20033;-64
2022/07/29 11:37:09;;;;;;;3.03;1.23;;;;;;;;;;5054315;28;20029;-65
2022/07/29 11:39:38;;;;;;;3.55;1.20;;;;;;;;;;5054241;28;20028;-65
2022/07/29 11:42:20;;;;;;;2.38;1.40;;;;;;;;;;5054012;28;20040;-65
2022/07/29 11:44:58;;;;;;;4.45;1.42;;;;;;;;;;5054107;28;20468;-64
2022/07/29 11:47:25;;;;;;;3.38;1.50;;;;;;;;;;5053538;28;20097;-65
2022/07/29 11:49:52;;;;;;;3.65;1.33;;;;;;;;;;5053980;28;20039;-66
2022/07/29 11:52:18;;;;;;;7.20;1.27;;;;;;;;;;5053813;28;20471;-65
2022/07/29 11:54:45;;;;;;;9.05;1.40;;;;;;;;;;5053931;28;20085;-65
2022/07/29 11:57:10;;;;;;;4.00;1.30;;;;;;;;;;5053725;28;20017;-65
2022/07/29 11:59:43;;;;;;;5.40;0.93;;;;;;;;;;5053874;28;20033;-64
2022/07/29 12:02:10;;;;;;;5.22;1.35;;;;;;;;;;5053967;28;20027;-65
2022/07/29 12:04:56;;;;;;;5.95;1.08;;;;;;;;;;5053541;28;20070;-65
2022/07/29 12:07:29;;;;;;;3.45;1.38;;;;;;;;;;5053786;28;20025;-65
2022/07/29 12:09:54;;;;;;;3.75;1.10;;;;;;;;;;5052459;28;20060;-65
2022/07/29 12:12:21;;;;;;;1.33;0.82;;;;;;;;;;5053020;28;20120;-66
2022/07/29 12:14:46;;;;;;;4.97;1.50;;;;;;;;;;5053537;28;20025;-65
2022/07/29 12:17:29;;;;;;;2.42;1.17;;;;;;;;;;5053702;28;20028;-64
2022/07/29 12:19:56;;;;;;;4.72;1.25;;;;;;;;;;5053222;28;20052;-65
2022/07/29 12:22:39;;;;;;;9.88;1.20;;;;;;;;;;5053407;28;20442;-65
2022/07/29 12:25:11;;;;;;;8.27;1.40;;;;;;;;;;5053450;28;20039;-64
2022/07/29 12:27:38;;;;;;;4.63;1.30;;;;;;;;;;5052158;28;20028;-65
2022/07/29 12:30:08;;;;;;;3.60;1.50;;;;;;;;;;5053378;28;20402;-64
2022/07/29 12:32:52;;;;;;;3.67;1.23;;;;;;;;;;5053204;28;20449;-65
2022/07/29 12:35:19;;;;;;;5.03;1.33;;;;;;;;;;5051845;28;20090;-66
2022/07/29 12:37:51;;;;;;;7.88;1.40;;;;;;;;;;5053043;28;20060;-65
2022/07/29 12:40:18;;;;;;;4.70;1.15;;;;;;;;;;5052909;28;20028;-67
2022/07/29 12:43:09;;;;;;;5.88;1.20;;;;;;;;;;5052740;28;20112;-67
2022/07/29 12:45:37;;;;;;;6.70;1.17;;;;;;;;;;5053109;28;20028;-66
2022/07/29 12:48:03;;;;;;;4.38;1.45;;;;;;;;;;5052986;28;20025;-67
2022/07/29 12:50:28;;;;;;;4.38;1.35;;;;;;;;;;5052719;28;20032;-66
2022/07/29 12:52:54;;;;;;;3.92;1.10;;;;;;;;;;5052779;28;20085;-67
2022/07/29 12:55:43;;;;;;;2.60;1.33;;;;;;;;;;5052451;28;20028;-67
2022/07/29 12:58:08;;;;;;;4.63;1.35;;;;;;;;;;5052930;28;20096;-66
2022/07/29 13:00:34;;;;;;;2.17;0.98;;;;;;;;;;5051906;28;20091;-66
2022/07/29 13:03:03;;;;;;;6.38;1.30;;;;;;;;;;5052755;28;20029;-65
2022/07/29 13:05:42;;;;;;;4.00;1.10;;;;;;;;;;5052635;28;20028;-66
2022/07/29 13:08:16;;;;;;;3.90;1.40;;;;;;;;;;5052775;28;20262;-66
2022/07/29 13:10:42;;;;;;;2.88;1.40;;;;;;;;;;5052134;28;20491;-67
2022/07/29 13:13:11;;;;;;;3.47;1.20;;;;;;;;;;5052496;28;20031;-66
2022/07/29 13:15:43;;;;;;;3.63;1.40;;;;;;;;;;5052300;28;20418;-66
2022/07/29 13:18:27;;;;;;;6.15;1.65;;;;;;;;;;5052405;28;20119;-67
2022/07/29 13:20:53;;;;;;;1.88;1.00;;;;;;;;;;5052254;28;20025;-66
2022/07/29 13:23:19;;;;;;;3.92;1.50;;;;;;;;;;5052056;28;20021;-66
2022/07/29 13:25:45;;;;;;;7.70;1.38;;;;;;;;;;5052232;28;20432;-66
2022/07/29 13:28:11;;;;;;;5.22;1.50;;;;;;;;;;5050023;28;20029;-66
2022/07/29 13:30:38;;;;;;;5.43;1.38;;;;;;;;;;5047984;28;20390;-66
2022/07/29 13:33:03;;;;;;;2.33;1.20;;;;;;;;;;5048454;28;20386;-64
2022/07/29 13:35:29;;;;;;;3.15;1.38;;;;;;;;;;5048424;28;20033;-66
2022/07/29 13:37:55;;;;;;;6.53;1.25;;;;;;;;;;5048210;28;20094;-66
2022/07/29 13:40:20;;;;;;;1.90;1.08;;;;;;;;;;5048312;28;20020;-66
2022/07/29 13:42:46;;;;;;;6.35;1.35;;;;;;;;;;5048037;28;20032;-66
2022/07/29 13:45:12;;;;;;;5.13;1.30;;;;;;;;;;5047590;28;20052;-66
2022/07/29 13:47:37;;;;;;;3.63;1.20;;;;;;;;;;5047456;28;20035;-67
2022/07/29 13:50:05;;;;;;;3.60;1.40;;;;;;;;;;5047637;28;20036;-66
2022/07/29 13:52:31;;;;;;;7.00;2.10;;;;;;;;;;5047941;28;20033;-66
2022/07/29 13:54:56;;;;;;;6.40;1.33;;;;;;;;;;5048345;28;20499;-66
2022/07/29 13:57:22;;;;;;;4.30;1.42;;;;;;;;;;5047974;28;20025;-67
2022/07/29 13:59:47;;;;;;;3.33;1.20;;;;;;;;;;5048008;28;20021;-64
2022/07/29 14:02:13;;;;;;;3.47;1.13;;;;;;;;;;5047940;28;20054;-63
2022/07/29 14:04:39;;;;;;;2.60;1.30;;;;;;;;;;5048063;28;20025;-64
2022/07/29 14:07:05;;;;;;;3.00;1.30;;;;;;;;;;5047833;28;20025;-64
2022/07/29 14:09:30;;;;;;;4.30;1.20;;;;;;;;;;5047565;28;20025;-64
2022/07/29 14:11:56;;;;;;;6.45;1.60;;;;;;;;;;5050295;28;20123;-65
2022/07/29 14:14:22;;;;;;;4.10;1.45;;;;;;;;;;5051496;28;20065;-65
2022/07/29 14:16:47;;;;;;;5.00;1.40;;;;;;;;;;5051856;28;20036;-66
2022/07/29 14:19:13;;;;;;;4.57;1.25;;;;;;;;;;5051775;28;20547;-65
2022/07/29 14:21:39;;;;;;;7.75;1.60;;;;;;;;;;5051586;28;20028;-65
2022/07/29 14:24:05;;;;;;;7.68;1.35;;;;;;;;;;5051444;28;20021;-65
2022/07/29 14:26:31;;;;;;;5.28;1.20;;;;;;;;;;5051751;28;20025;-66
2022/07/29 14:28:57;;;;;;;8.23;1.30;;;;;;;;;;5051556;28;20029;-66
2022/07/29 14:31:22;;;;;;;4.78;1.30;;;;;;;;;;5054718;28;20033;-67
2022/07/29 14:33:48;;;;;;;3.35;1.38;;;;;;;;;;5055390;28;20052;-66
2022/07/29 14:36:13;;;;;;;11.60;1.70;;;;;;;;;;5055194;28;20028;-65
2022/07/29 14:38:40;;;;;;;2.78;1.30;;;;;;;;;;5055536;28;20104;-65
2022/07/29 14:41:07;;;;;;;4.50;1.30;;;;;;;;;;5055407;28;20100;-64
2022/07/29 14:43:34;;;;;;;4.53;1.30;;;;;;;;;;5055525;28;20051;-64
2022/07/29 14:46:00;;;;;;;6.18;1.40;;;;;;;;;;5055166;28;20031;-66
2022/07/29 14:48:25;;;;;;;3.22;1.38;;;;;;;;;;5055102;28;20021;-65
2022/07/29 14:50:51;;;;;;;5.93;1.70;;;;;;;;;;5054846;28;20386;-66
2022/07/29 14:53:16;;;;;;;4.85;1.45;;;;;;;;;;5054899;28;20385;-66
2022/07/29 14:55:42;;;;;;;1.95;1.00;;;;;;;;;;5053550;28;20355;-66
2022/07/29 14:58:08;;;;;;;3.95;1.10;;;;;;;;;;5054945;28;20021;-67